Historyczne dane pomiarowe

Dodano dane terminowe – wersja testowa.

Dane z okresu 1951-2019

Wersja bazy: 1.34 [2019-03-16, lista zmian], aktualizacja planowana na 2019-04-15

Dane meteo z obszaru Polski uzyskane na podstawie danych udostępnionych przez Instytut Meteorologii i Gospodarki Wodnej – Państwowy Instytut Badawczy.

 

Wybierz Datę:    

       

TemperaturaWilgotnośćWiatrCiśnienieOpadyŚniegCzas trwania zjawisk
 Stacja t tx tn tng RH VA  wxwx mslp ppp RRR   cm mm wxwxwxwxwxwxwx
2019-07-25 23.8 31.6 13.2 11.7-- 1.7----- 0.0------------
2019-07-24 22.2 28.9 13.3 11.7-- 1.3----- 0.0------------
2019-07-23 22.6 28.3 17.0 16.5-- 2.7----- 0.0------------
2019-07-22 20.4 25.6 13.3 11.2-- 7.3----- 0.0------------
2019-07-21 20.9 25.8 16.6 16.3-- 5.7----- 1.8------------
2019-07-20 22.8 29.4 15.5 13.5-- 5.3----- 4.5------------
2019-07-19 19.7 27.0 12.0 10.2-- 6.7----- 0.1------------
2019-07-18 18.3 24.2 10.4 9.2-- 5.0----- 0.0------------
2019-07-17 17.0 23.0 9.5 6.8-- 5.7----- 0.0------------
2019-07-16 16.6 20.6 12.2 10.1-- 5.7----- 0.0------------
2019-07-15 17.9 22.7 13.0 10.7-- 6.0----- 0.0------------
2019-07-14 16.3 21.0 9.9 8.0-- 7.3----- 1.6------------
2019-07-13 15.8 19.3 12.3 10.7-- 8.0----- 19.8------------
2019-07-12 16.5 22.3 9.3 6.8-- 7.0----- 8.2------------
2019-07-11 18.5 24.0 11.8 9.2-- 2.0----- 0.0------------
2019-07-10 14.9 20.3 9.8 6.0-- 4.3----- 0.2------------
2019-07-09 13.8 18.0 8.0 4.8-- 7.0----- 0.0------------
2019-07-08 15.1 19.6 10.4 7.8-- 5.0----- 0.0------------
2019-07-07 17.0 24.1 12.7 12.7-- 7.0----- 0.1------------
2019-07-06 20.8 29.2 11.5 9.7-- 6.0----- 0.1------------
2019-07-05 17.2 22.0 9.9 8.0-- 7.7----- 0.0------------
2019-07-04 16.6 23.4 6.3 4.0-- 1.7----- 0.0------------
2019-07-03 16.8 21.6 11.3 7.8-- 1.7----- 0.0------------
2019-07-02 19.8 24.0 16.1 13.8-- 2.7----- 0.0------------
2019-07-01 24.6 32.4 20.7 18.8-- 4.0----- 5.2------------
2019-06-30 24.9 32.5 16.1 12.8-- 1.0----- 0.0------------
2019-06-29 21.1 28.4 9.8 8.3-- 1.0----- 0.0------------
2019-06-28 18.3 23.5 12.0 10.7-- 4.3----- 0.0------------
2019-06-27 24.7 30.2 21.6 19.3-- 1.7----- 0.0------------
2019-06-26 27.5 33.5 20.5 17.5-- 1.0----- 0.0------------
2019-06-25 22.7 30.0 13.2 11.9-- 1.7----- 0.0------------
2019-06-24 20.2 26.9 11.0 9.0-- 2.0----- 0.0------------
2019-06-23 19.4 24.2 15.1 13.2-- 6.0----- 0.0------------
2019-06-22 19.7 24.1 14.6 13.0-- 5.7----- 0.0------------
2019-06-21 20.0 23.2 14.9 12.9-- 8.0----- 16.8------------
2019-06-20 21.7 29.0 17.1 15.8-- 5.3----- 1.4------------
2019-06-19 21.7 28.2 12.7 11.3-- 3.0----- 0.2------------
2019-06-18 19.5 24.6 12.3 10.4-- 5.3----- 0.0------------
2019-06-17 19.2 22.9 13.3 11.9-- 1.0----- 0.0------------
2019-06-16 19.5 23.3 16.4 15.9-- 7.7----- 4.2------------
2019-06-15 22.6 30.5 15.4 15.3-- 6.0----- 19.1------------
2019-06-14 21.8 26.7 15.5 14.0-- 1.0----- 0.0------------
2019-06-13 20.7 26.0 17.6 17.8-- 8.0----- 11.5------------
2019-06-12 24.3 29.5 17.5 14.8-- 1.0----- 0.0------------
2019-06-11 23.8 30.5 12.9 12.9-- 1.0----- 0.0------------
2019-06-10 22.4 29.4 12.6 10.8-- 5.7----- 0.0------------
2019-06-09 17.6 24.0 8.3 6.3-- 3.3----- 0.0------------
2019-06-08 17.8 21.2 12.8 11.2-- 6.0----- 1.7------------
2019-06-07 18.8 22.7 15.4 15.3-- 6.3----- 0.0------------
2019-06-06 20.8 25.0 15.4 13.3-- 3.0----- 4.6------------
2019-06-05 20.8 27.4 12.8 10.7-- 2.7----- 0.0------------
2019-06-04 21.7 28.0 12.3 10.2-- 1.0----- 0.0------------
2019-06-03 20.3 26.7 11.9 9.4-- 1.0----- 0.0------------
2019-06-02 20.5 26.2 12.0 10.3-- 2.3----- 0.0------------
2019-06-01 18.6 24.5 11.8 9.3-- 3.0----- 0.0------------
2019-05-31 15.5 22.3 5.3 3.5-- 3.7----- 0.0------------
2019-05-30 11.8 16.6 6.0 4.8-- 3.0----- 0.0------------
2019-05-29 11.5 15.0 8.8 8.7-- 8.0----- 0.0------------
2019-05-28 14.0 18.0 11.3 10.5-- 8.0----- 7.0------------
2019-05-27 17.7 23.7 11.3 8.0-- 5.3----- 5.9------------
110.4 ms

 

Źródłem pochodzenia danych jest Instytut Meteorologii i Gospodarki Wodnej – Państwowy Instytut Badawczy. Dane Instytutu Meteorologii i Gospodarki Wodnej – Państwowego Instytutu Badawczego zostały przetworzone.

Dane źródłowe można odnaleźć na stronie https://dane.imgw.pl